createdAt,value
2019-01-16T00:00:29.923Z,7.80
2019-01-16T00:03:02.631Z,7.80
2019-01-16T00:05:48.278Z,7.80
2019-01-16T00:08:23.898Z,7.80
2019-01-16T00:11:02.696Z,7.80
2019-01-16T00:13:33.056Z,7.80
2019-01-16T00:16:03.506Z,8.10
2019-01-16T00:18:36.267Z,8.10
2019-01-16T00:21:15.407Z,8.00
2019-01-16T00:23:51.115Z,8.00
2019-01-16T00:26:26.899Z,7.90
2019-01-16T00:29:06.055Z,7.90
2019-01-16T00:31:36.124Z,7.90
2019-01-16T00:34:12.444Z,7.90
2019-01-16T00:36:58.960Z,7.80
2019-01-16T00:39:32.092Z,7.80
2019-01-16T00:42:08.268Z,7.80
2019-01-16T00:44:50.526Z,7.80
2019-01-16T00:47:23.577Z,7.80
2019-01-16T00:50:10.173Z,7.80
2019-01-16T00:52:49.527Z,7.80
2019-01-16T00:55:25.499Z,7.80
2019-01-16T00:57:55.547Z,7.80
2019-01-16T01:00:37.710Z,7.80
2019-01-16T01:03:10.415Z,7.80
2019-01-16T01:05:43.420Z,7.70
2019-01-16T01:08:16.464Z,7.80
2019-01-16T01:11:05.770Z,7.70
2019-01-16T01:13:37.352Z,7.70
2019-01-16T01:16:19.625Z,7.70
2019-01-16T01:18:52.428Z,7.70
2019-01-16T01:21:37.820Z,7.70
2019-01-16T01:24:07.947Z,7.70
2019-01-16T01:26:54.708Z,7.70
2019-01-16T01:29:37.059Z,7.70
2019-01-16T01:32:13.107Z,7.80
2019-01-16T01:34:43.194Z,7.80
2019-01-16T01:37:29.427Z,7.80
2019-01-16T01:40:02.426Z,7.80
2019-01-16T01:42:38.949Z,7.80
2019-01-16T01:45:25.812Z,7.80
2019-01-16T01:47:58.771Z,7.80
2019-01-16T01:50:37.422Z,7.80
2019-01-16T01:53:07.464Z,7.90
2019-01-16T01:55:37.500Z,7.80
2019-01-16T01:58:07.547Z,7.80
2019-01-16T02:00:40.493Z,7.90
2019-01-16T02:03:26.944Z,7.90
2019-01-16T02:06:13.760Z,7.90
2019-01-16T02:08:43.806Z,7.90
2019-01-16T02:11:22.688Z,7.80
2019-01-16T02:13:55.408Z,7.90
2019-01-16T02:16:28.135Z,7.90
2019-01-16T02:18:58.184Z,7.90
2019-01-16T02:21:36.871Z,7.90
2019-01-16T02:24:23.439Z,7.80
2019-01-16T02:26:59.435Z,7.90
2019-01-16T02:29:32.180Z,7.90
2019-01-16T02:32:02.265Z,7.90
2019-01-16T02:34:32.315Z,7.90
2019-01-16T02:37:02.360Z,7.90
2019-01-16T02:39:32.413Z,7.90
2019-01-16T02:42:18.791Z,7.90
2019-01-16T02:44:48.854Z,7.80
2019-01-16T02:47:34.252Z,7.80
2019-01-16T02:50:19.348Z,7.80
2019-01-16T02:52:49.396Z,7.80
2019-01-16T02:55:37.565Z,7.80
2019-01-16T02:58:22.455Z,7.80
2019-01-16T03:00:58.367Z,7.80
2019-01-16T03:03:28.407Z,7.80
2019-01-16T03:06:04.187Z,7.80
2019-01-16T03:08:50.479Z,7.80
2019-01-16T03:11:20.530Z,7.80
2019-01-16T03:14:06.859Z,7.80
2019-01-16T03:16:42.927Z,7.80
2019-01-16T03:19:29.540Z,7.80
2019-01-16T03:22:05.824Z,7.70
2019-01-16T03:24:52.314Z,7.70
2019-01-16T03:27:25.278Z,7.70
2019-01-16T03:30:07.505Z,7.70
2019-01-16T03:32:46.197Z,7.70
2019-01-16T03:35:32.799Z,7.70
2019-01-16T03:38:02.853Z,7.80
2019-01-16T03:40:35.604Z,7.80
2019-01-16T03:43:23.897Z,7.70
2019-01-16T03:45:56.827Z,7.70
2019-01-16T03:48:32.861Z,7.80
2019-01-16T03:51:02.905Z,7.80
2019-01-16T03:53:41.715Z,7.80
2019-01-16T03:56:26.951Z,7.80
2019-01-16T03:59:13.609Z,7.80
2019-01-16T04:01:52.902Z,7.80
2019-01-16T04:04:22.968Z,7.80
2019-01-16T04:07:05.012Z,7.80
2019-01-16T04:09:47.018Z,7.80
2019-01-16T04:12:17.051Z,7.80
2019-01-16T04:15:02.418Z,7.80
2019-01-16T04:17:51.309Z,7.80
2019-01-16T04:20:36.103Z,7.80
2019-01-16T04:23:09.355Z,7.80
2019-01-16T04:25:39.413Z,7.80
2019-01-16T04:28:24.575Z,7.80
2019-01-16T04:31:03.660Z,7.90
2019-01-16T04:33:42.661Z,7.90
2019-01-16T04:36:12.699Z,7.90
2019-01-16T04:38:48.715Z,7.90
2019-01-16T04:41:33.739Z,7.90
2019-01-16T04:44:06.676Z,7.90
2019-01-16T04:46:53.070Z,7.80
2019-01-16T04:49:48.324Z,7.80
2019-01-16T04:52:24.515Z,7.80
2019-01-16T04:54:54.245Z,7.70
2019-01-16T04:57:40.580Z,7.70
2019-01-16T05:00:13.568Z,7.70
2019-01-16T05:03:00.123Z,7.60
2019-01-16T05:05:30.173Z,7.60
2019-01-16T05:08:12.120Z,7.70
2019-01-16T05:10:42.174Z,7.60
2019-01-16T05:13:28.565Z,7.60
2019-01-16T05:16:11.000Z,7.70
2019-01-16T05:18:50.058Z,7.70
2019-01-16T05:21:20.409Z,7.70
2019-01-16T05:23:50.483Z,7.70
2019-01-16T05:29:05.005Z,7.70
2019-01-16T05:31:47.083Z,7.70
2019-01-16T05:34:19.939Z,7.70
2019-01-16T05:37:06.199Z,7.70
2019-01-16T05:39:42.245Z,7.70
2019-01-16T05:42:12.313Z,7.70
2019-01-16T05:44:57.500Z,7.70
2019-01-16T05:47:36.489Z,7.70
2019-01-16T05:50:09.076Z,7.70
2019-01-16T05:52:39.135Z,7.80
2019-01-16T05:55:25.764Z,7.70
2019-01-16T05:57:55.824Z,7.80
2019-01-16T06:00:42.450Z,7.80
2019-01-16T06:03:13.367Z,7.80
2019-01-16T06:05:46.100Z,7.70
2019-01-16T06:08:34.189Z,7.70
2019-01-16T06:11:07.088Z,7.80
2019-01-16T06:13:37.397Z,7.70
2019-01-16T06:16:23.722Z,7.80
2019-01-16T06:19:10.224Z,7.70
2019-01-16T06:21:43.377Z,7.80
2019-01-16T06:24:19.303Z,7.80
2019-01-16T06:26:49.360Z,7.80
2019-01-16T06:29:21.869Z,7.80
2019-01-16T06:31:54.868Z,7.80
2019-01-16T06:34:33.967Z,7.80
2019-01-16T06:37:20.364Z,7.80
2019-01-16T06:39:53.305Z,7.80
2019-01-16T06:42:39.963Z,7.90
2019-01-16T06:45:16.456Z,7.80
2019-01-16T06:47:55.291Z,7.90
2019-01-16T06:50:28.523Z,7.90
2019-01-16T06:53:02.604Z,7.90
2019-01-16T06:55:44.571Z,7.80
2019-01-16T06:58:14.634Z,7.90
2019-01-16T07:00:47.489Z,7.90
2019-01-16T07:03:17.550Z,7.90
2019-01-16T07:05:50.260Z,7.90
2019-01-16T07:08:23.243Z,7.90
2019-01-16T07:10:56.169Z,7.80
2019-01-16T07:13:44.478Z,7.80
2019-01-16T07:16:30.823Z,7.80
2019-01-16T07:19:12.368Z,7.80
2019-01-16T07:22:00.463Z,7.80
2019-01-16T07:24:30.512Z,7.70
2019-01-16T07:27:00.551Z,7.80
2019-01-16T07:29:48.595Z,7.80
2019-01-16T07:32:34.499Z,7.80
2019-01-16T07:35:10.604Z,7.90
2019-01-16T07:37:40.687Z,7.80
2019-01-16T07:40:26.013Z,7.80
2019-01-16T07:43:14.335Z,7.80
2019-01-16T07:46:00.581Z,7.80
2019-01-16T07:48:33.547Z,7.80
2019-01-16T07:51:09.560Z,7.80
2019-01-16T07:53:51.624Z,7.90
2019-01-16T07:56:27.375Z,7.90
2019-01-16T07:59:09.800Z,7.90
2019-01-16T08:01:55.899Z,7.90
2019-01-16T08:04:25.956Z,8.00
2019-01-16T08:07:11.186Z,7.90
2019-01-16T08:09:57.339Z,7.90
2019-01-16T08:12:45.780Z,7.90
2019-01-16T08:15:19.061Z,8.00
2019-01-16T08:17:57.917Z,8.00
2019-01-16T08:20:45.531Z,8.00
2019-01-16T08:23:15.580Z,8.00
2019-01-16T08:25:54.370Z,8.00
2019-01-16T08:28:24.424Z,8.10
2019-01-16T08:30:54.463Z,8.10
2019-01-16T08:33:24.503Z,8.10
2019-01-16T08:35:57.437Z,8.10
2019-01-16T08:38:39.615Z,8.10
2019-01-16T08:41:21.785Z,8.10
2019-01-16T08:43:51.905Z,8.10
2019-01-16T08:46:21.964Z,8.10
2019-01-16T08:48:54.915Z,8.10
2019-01-16T08:51:41.159Z,8.10
2019-01-16T08:54:17.253Z,8.20
2019-01-16T08:56:47.320Z,8.10
2019-01-16T08:59:20.305Z,8.20
2019-01-16T09:01:56.099Z,8.10
2019-01-16T09:04:35.207Z,8.10
2019-01-16T09:07:21.511Z,8.10
2019-01-16T09:09:57.191Z,8.20
2019-01-16T09:12:33.109Z,8.20
2019-01-16T09:15:05.808Z,8.20
2019-01-16T09:17:52.048Z,8.20
2019-01-16T09:20:40.151Z,8.20
2019-01-16T09:23:25.049Z,8.20
2019-01-16T09:26:03.951Z,8.20
2019-01-16T09:28:48.708Z,8.20
2019-01-16T09:31:30.763Z,8.20
2019-01-16T09:34:03.448Z,8.20
2019-01-16T09:36:48.069Z,8.30
2019-01-16T09:39:23.956Z,8.30
2019-01-16T09:42:10.228Z,8.30
2019-01-16T09:44:56.708Z,8.30
2019-01-16T09:47:43.288Z,8.40
2019-01-16T09:50:14.113Z,8.30
2019-01-16T09:53:00.564Z,8.30
2019-01-16T09:55:36.571Z,8.40
2019-01-16T09:58:22.764Z,8.40
2019-01-16T10:01:08.671Z,8.40
2019-01-16T10:03:57.056Z,8.40
2019-01-16T10:06:43.736Z,8.40
2019-01-16T10:09:19.753Z,8.50
2019-01-16T10:11:49.779Z,8.50
2019-01-16T10:14:31.975Z,8.50
2019-01-16T10:17:11.113Z,8.50
2019-01-16T10:19:43.911Z,8.50
2019-01-16T10:22:19.795Z,8.60
2019-01-16T10:24:58.736Z,8.60
2019-01-16T10:27:31.357Z,8.60
2019-01-16T10:30:10.205Z,8.50
2019-01-16T10:32:43.012Z,8.50
2019-01-16T10:35:29.421Z,8.50
2019-01-16T10:38:01.849Z,8.60
2019-01-16T10:40:48.104Z,8.60
2019-01-16T10:43:27.342Z,8.70
2019-01-16T10:46:13.940Z,8.60
2019-01-16T10:48:53.116Z,8.60
2019-01-16T10:51:29.017Z,8.60
2019-01-16T10:54:15.228Z,8.60
2019-01-16T10:57:00.427Z,8.60
2019-01-16T10:59:47.404Z,8.50
2019-01-16T11:02:23.449Z,8.50
2019-01-16T11:04:53.498Z,8.40
2019-01-16T11:07:39.626Z,8.30
2019-01-16T11:10:28.747Z,8.40
2019-01-16T11:13:07.884Z,8.30
2019-01-16T11:15:37.934Z,8.30
2019-01-16T11:18:07.984Z,8.30
2019-01-16T11:20:54.415Z,8.20
2019-01-16T11:23:42.775Z,8.20
2019-01-16T11:26:12.823Z,8.20
2019-01-16T11:28:48.536Z,8.10
2019-01-16T11:31:30.440Z,8.10
2019-01-16T11:34:18.564Z,8.10
2019-01-16T11:37:00.150Z,8.20
2019-01-16T11:39:45.504Z,8.20
2019-01-16T11:42:24.127Z,8.20
2019-01-16T11:44:54.192Z,8.20
2019-01-16T11:47:27.360Z,8.30
2019-01-16T11:50:12.456Z,8.30
2019-01-16T11:52:57.816Z,8.20
2019-01-16T11:55:46.060Z,8.20
2019-01-16T11:58:31.060Z,8.20
2019-01-16T12:01:06.904Z,8.20
2019-01-16T12:03:40.205Z,8.20
2019-01-16T12:06:13.132Z,8.20
2019-01-16T12:08:58.373Z,8.20
2019-01-16T12:11:37.183Z,8.20
2019-01-16T12:14:19.451Z,8.10
2019-01-16T12:16:52.679Z,8.10
2019-01-16T12:19:22.728Z,8.00
2019-01-16T12:22:04.865Z,8.00
2019-01-16T12:24:46.809Z,8.10
2019-01-16T12:27:32.100Z,8.10
2019-01-16T12:30:08.105Z,8.20
2019-01-16T12:32:38.152Z,8.20
2019-01-16T12:35:17.749Z,8.20
2019-01-16T12:37:53.546Z,8.30
2019-01-16T12:40:39.867Z,8.30
2019-01-16T12:43:16.137Z,8.30
2019-01-16T12:45:58.110Z,8.40
2019-01-16T12:48:30.808Z,8.30
2019-01-16T12:51:00.852Z,8.40
2019-01-16T12:53:33.547Z,8.30
2019-01-16T12:56:11.071Z,8.30
2019-01-16T12:58:56.685Z,8.30
2019-01-16T13:01:29.300Z,8.30
2019-01-16T13:04:02.231Z,8.20
2019-01-16T13:06:32.267Z,8.30
2019-01-16T13:09:18.875Z,8.20
2019-01-16T13:12:05.531Z,8.10
2019-01-16T13:14:47.862Z,8.00
2019-01-16T13:17:18.259Z,7.90
2019-01-16T13:20:00.276Z,7.90
2019-01-16T13:22:46.952Z,7.90
2019-01-16T13:25:17.020Z,7.80
2019-01-16T13:28:02.320Z,7.80
2019-01-16T13:30:38.007Z,7.60
2019-01-16T13:33:24.439Z,7.60
2019-01-16T13:35:57.419Z,7.60
2019-01-16T13:38:27.458Z,7.50
2019-01-16T13:41:10.141Z,7.50
2019-01-16T13:43:42.941Z,7.50
2019-01-16T13:46:31.077Z,7.50
2019-01-16T13:49:04.166Z,7.50
2019-01-16T13:51:46.362Z,7.50
2019-01-16T13:54:31.469Z,7.50
2019-01-16T13:57:07.097Z,7.60
2019-01-16T13:59:40.851Z,7.60
2019-01-16T14:02:13.357Z,7.50
2019-01-16T14:04:43.446Z,7.40
2019-01-16T14:07:22.755Z,7.40
2019-01-16T14:10:02.136Z,7.50
2019-01-16T14:12:40.975Z,7.50
2019-01-16T14:15:12.469Z,7.50
2019-01-16T14:17:57.396Z,7.50
2019-01-16T14:20:43.952Z,7.50
2019-01-16T14:23:30.589Z,7.50
2019-01-16T14:26:09.683Z,7.50
2019-01-16T14:28:57.823Z,7.60
2019-01-16T14:31:43.970Z,7.70
2019-01-16T14:34:14.056Z,7.70
2019-01-16T14:36:44.100Z,7.70
2019-01-16T14:39:26.681Z,7.70
2019-01-16T14:41:59.472Z,7.70
2019-01-16T14:44:29.555Z,7.60
2019-01-16T14:47:11.573Z,7.50
2019-01-16T14:49:57.367Z,7.50
2019-01-16T14:52:30.108Z,7.50
2019-01-16T14:55:05.817Z,7.50
2019-01-16T14:57:35.094Z,7.50
2019-01-16T15:00:23.936Z,7.40
2019-01-16T15:03:10.565Z,7.50
2019-01-16T15:05:52.582Z,7.50
2019-01-16T15:08:25.312Z,7.50
2019-01-16T15:11:10.355Z,7.40
2019-01-16T15:13:40.404Z,7.30
2019-01-16T15:16:13.200Z,7.30
2019-01-16T15:18:58.631Z,7.30
2019-01-16T15:21:34.422Z,7.30
2019-01-16T15:24:16.214Z,7.20
2019-01-16T15:26:46.276Z,7.10
2019-01-16T15:29:16.325Z,7.20
2019-01-16T15:31:52.352Z,7.20
2019-01-16T15:34:22.416Z,5.20
2019-01-16T15:37:01.607Z,7.20
2019-01-16T15:39:40.416Z,7.10
2019-01-16T15:42:28.580Z,7.00
2019-01-16T15:45:14.908Z,7.00
2019-01-16T15:48:03.296Z,7.00
2019-01-16T15:50:35.884Z,6.90
2019-01-16T15:53:08.743Z,6.90
2019-01-16T15:55:41.484Z,6.90
2019-01-16T15:58:20.491Z,6.90
2019-01-16T16:00:53.271Z,6.90
2019-01-16T16:03:32.590Z,6.80
2019-01-16T16:06:19.166Z,6.90
2019-01-16T16:08:55.376Z,6.80
2019-01-16T16:11:41.648Z,6.90
2019-01-16T16:14:11.718Z,6.90
2019-01-16T16:16:57.490Z,6.90
2019-01-16T16:19:43.836Z,7.00
2019-01-16T16:22:19.288Z,6.90
2019-01-16T16:24:48.614Z,6.90
2019-01-16T16:27:25.134Z,6.90
2019-01-16T16:30:01.395Z,6.80
2019-01-16T16:32:46.508Z,6.80
2019-01-16T16:35:25.336Z,6.80
2019-01-16T16:37:55.388Z,6.80
2019-01-16T16:40:25.507Z,6.80
2019-01-16T16:42:55.574Z,6.80
2019-01-16T16:45:31.552Z,6.80
2019-01-16T16:48:04.588Z,6.70
2019-01-16T16:50:46.697Z,6.70
2019-01-16T16:53:32.075Z,6.70
2019-01-16T16:56:20.602Z,6.70
2019-01-16T16:58:59.476Z,6.70
2019-01-16T17:01:29.537Z,6.70
2019-01-16T17:04:08.544Z,6.70
2019-01-16T17:06:55.491Z,6.70
2019-01-16T17:09:25.547Z,6.70
2019-01-16T17:11:58.435Z,6.70
2019-01-16T17:14:28.481Z,6.80
2019-01-16T17:16:58.531Z,6.80
2019-01-16T17:19:43.830Z,6.80
2019-01-16T17:22:16.340Z,6.80
2019-01-16T17:24:46.426Z,6.80
2019-01-16T17:27:31.747Z,6.70
2019-01-16T17:30:17.995Z,6.70
2019-01-16T17:32:57.075Z,6.70
2019-01-16T17:36:02.413Z,6.60
2019-01-16T17:38:35.458Z,6.70
2019-01-16T17:41:08.054Z,6.70
2019-01-16T17:43:40.940Z,6.80
2019-01-16T17:46:27.500Z,6.90
2019-01-16T17:49:12.822Z,7.00
2019-01-16T17:51:58.271Z,7.10
2019-01-16T17:54:37.512Z,7.10
2019-01-16T17:57:24.052Z,7.10
2019-01-16T17:59:57.444Z,7.00
2019-01-16T18:02:36.514Z,6.90
2019-01-16T18:05:10.381Z,6.80
2019-01-16T18:07:46.444Z,6.80
2019-01-16T18:10:28.647Z,6.80
2019-01-16T18:13:10.992Z,6.70
2019-01-16T18:15:44.150Z,6.70
2019-01-16T18:18:30.720Z,6.70
2019-01-16T18:21:16.108Z,6.70
2019-01-16T18:23:46.193Z,6.70
2019-01-16T18:26:34.351Z,6.70
2019-01-16T18:29:09.893Z,6.70
2019-01-16T18:31:42.626Z,6.70
2019-01-16T18:34:30.787Z,6.70
2019-01-16T18:37:17.551Z,6.70
2019-01-16T18:39:57.052Z,6.70
2019-01-16T18:42:30.165Z,6.70
2019-01-16T18:45:00.262Z,6.70
2019-01-16T18:47:30.338Z,6.70
2019-01-16T18:50:00.403Z,6.70
2019-01-16T18:52:33.145Z,6.70
2019-01-16T18:55:15.387Z,6.70
2019-01-16T18:57:54.424Z,6.60
2019-01-16T19:00:33.648Z,6.70
2019-01-16T19:03:20.006Z,6.80
2019-01-16T19:05:50.059Z,6.80
2019-01-16T19:08:29.016Z,6.80
2019-01-16T19:11:01.748Z,6.80
2019-01-16T19:13:37.904Z,6.70
2019-01-16T19:16:08.029Z,6.70
2019-01-16T19:18:40.790Z,6.50
2019-01-16T19:21:26.331Z,6.40
2019-01-16T19:24:05.268Z,6.40
2019-01-16T19:26:38.244Z,6.30
2019-01-16T19:29:23.288Z,6.40
2019-01-16T19:32:09.682Z,6.30
2019-01-16T19:34:45.687Z,6.30
2019-01-16T19:37:15.800Z,6.20
2019-01-16T19:39:55.078Z,6.30
2019-01-16T19:42:25.123Z,6.40
2019-01-16T19:45:07.240Z,6.40
2019-01-16T19:47:43.455Z,6.40
2019-01-16T19:50:21.951Z,6.40
2019-01-16T19:52:52.344Z,6.40
2019-01-16T19:55:38.879Z,6.40
2019-01-16T19:58:27.293Z,6.50
2019-01-16T20:00:57.307Z,6.40
2019-01-16T20:03:27.634Z,6.40
2019-01-16T20:06:03.638Z,6.40
2019-01-16T20:08:42.495Z,6.40
2019-01-16T20:11:12.552Z,6.40
2019-01-16T20:13:57.721Z,6.40
2019-01-16T20:16:42.679Z,6.30
2019-01-16T20:19:15.441Z,6.30
2019-01-16T20:21:45.467Z,6.20
2019-01-16T20:24:31.784Z,6.20
2019-01-16T20:27:01.871Z,6.30
2019-01-16T20:29:31.912Z,6.30
2019-01-16T20:32:04.865Z,6.30
2019-01-16T20:34:47.143Z,6.20
2019-01-16T20:37:17.512Z,6.20
2019-01-16T20:39:47.568Z,6.20
2019-01-16T20:42:26.579Z,6.20
2019-01-16T20:44:56.618Z,6.20
2019-01-16T20:47:42.269Z,6.20
2019-01-16T20:50:24.747Z,6.20
2019-01-16T20:53:03.723Z,6.20
2019-01-16T20:55:33.792Z,6.20
2019-01-16T20:58:09.880Z,6.20
2019-01-16T21:00:42.893Z,6.20
2019-01-16T21:03:12.951Z,6.30
2019-01-16T21:05:46.163Z,6.20
2019-01-16T21:08:25.395Z,6.20
2019-01-16T21:11:04.662Z,6.30
2019-01-16T21:13:35.061Z,6.30
2019-01-16T21:16:07.775Z,6.40
2019-01-16T21:18:40.251Z,6.40
2019-01-16T21:21:19.052Z,6.30
2019-01-16T21:24:02.035Z,6.20
2019-01-16T21:26:48.396Z,6.20
2019-01-16T21:29:18.793Z,6.20
2019-01-16T21:31:57.864Z,6.10
2019-01-16T21:34:46.349Z,6.10
2019-01-16T21:37:16.394Z,6.10
2019-01-16T21:40:02.559Z,6.20
2019-01-16T21:42:32.675Z,6.10
2019-01-16T21:45:08.972Z,6.10
2019-01-16T21:47:39.031Z,6.10
2019-01-16T21:50:17.633Z,6.10
2019-01-16T21:52:56.375Z,6.10
2019-01-16T21:55:35.668Z,6.10
2019-01-16T21:58:05.708Z,6.00
2019-01-16T22:00:50.855Z,6.00
2019-01-16T22:03:23.660Z,6.00
2019-01-16T22:06:05.689Z,6.00
2019-01-16T22:08:51.960Z,6.00
2019-01-16T22:11:25.096Z,6.00
2019-01-16T22:14:01.068Z,6.00
2019-01-16T22:16:43.304Z,5.90
2019-01-16T22:19:13.348Z,5.90
2019-01-16T22:21:43.400Z,5.90
2019-01-16T22:24:13.439Z,5.90
2019-01-16T22:26:46.415Z,6.00
2019-01-16T22:29:32.907Z,6.00
2019-01-16T22:32:02.971Z,6.00
2019-01-16T22:34:33.012Z,6.00
2019-01-16T22:37:08.769Z,6.00
2019-01-16T22:39:47.772Z,6.00
2019-01-16T22:42:17.833Z,5.90
2019-01-16T22:44:56.681Z,5.90
2019-01-16T22:47:43.067Z,5.90
2019-01-16T22:50:17.108Z,5.90
2019-01-16T22:53:03.444Z,5.90
2019-01-16T22:55:33.488Z,5.80
2019-01-16T22:58:03.541Z,5.80
2019-01-16T23:00:48.382Z,5.90
2019-01-16T23:03:21.096Z,5.80
2019-01-16T23:06:09.543Z,5.70
2019-01-16T23:08:45.475Z,5.70
2019-01-16T23:11:15.658Z,5.60
2019-01-16T23:13:48.639Z,5.60
2019-01-16T23:16:30.740Z,5.60
2019-01-16T23:19:17.079Z,5.60
2019-01-16T23:21:47.144Z,5.60
2019-01-16T23:24:20.011Z,5.60
2019-01-16T23:26:55.974Z,5.60
2019-01-16T23:29:26.028Z,5.60
2019-01-16T23:31:56.087Z,5.60
2019-01-16T23:34:32.063Z,5.60
2019-01-16T23:37:04.876Z,5.60
2019-01-16T23:39:34.940Z,5.50
2019-01-16T23:42:05.051Z,5.60
2019-01-16T23:44:44.352Z,5.60
2019-01-16T23:47:17.363Z,5.60
2019-01-16T23:50:05.664Z,5.50
2019-01-16T23:52:53.475Z,5.50
2019-01-16T23:55:32.345Z,5.50
2019-01-16T23:58:02.576Z,5.50
